Surface observations / UK / EGMC

Quebec | Canada | USA | France | UK | Europe | Elsewhere

Display: Info & Location for EGMC | Help decoding METAR

EGMC SOUTHEND-ON-SEA -- UK
Raw surface observations for station EGMC
EGMC 032050Z 22009KT CAVOK 19/13 Q1011 RERA=
EGMC 032020Z 22011KT CAVOK 19/13 Q1011 RERA=
EGMC 031950Z 21011KT 9999 FEW024 19/13 Q1011 RERA=
EGMC 031920Z 20010KT 9999 FEW024 SCT048 19/13 Q1011 RERA=
EGMC 031850Z 21010KT 9999 BKN034 19/13 Q1011 RERA=
EGMC 031820Z 21013KT 9999 BKN025 BKN033 19/14 Q1011 RERA=
EGMC 031750Z 23013KT 9999 FEW014 BKN025 19/14 Q1011 RERA=
EGMC 031720Z 22014KT 9999 FEW014 BKN030 20/16 Q1011 RERA=
EGMC 031650Z 21013KT 9999 SCT029 BKN033 21/15 Q1011=
EGMC 031620Z 21015KT 9999 FEW025 BKN043 22/16 Q1011=
EGMC 031550Z 21016KT 9999 FEW026 23/15 Q1011=
EGMC 031520Z 22016KT 9999 FEW027 BKN031 24/15 Q1011=
EGMC 031450Z 22017KT 9999 BKN034 23/14 Q1011=
EGMC 031420Z 21017KT 9999 BKN037 23/14 Q1011=
EGMC 031350Z 21015KT 9999 SCT037 24/14 Q1011=
EGMC 031320Z 21017KT 9999 BKN046 24/14 Q1011=
EGMC 031250Z 21016KT 9999 BKN041 24/13 Q1011=
EGMC 031220Z 21014KT 9999 SCT040 25/14 Q1011=
EGMC 031150Z 22015KT 9999 SCT041 24/13 Q1011=
EGMC 031120Z 23016KT 9999 SCT033 24/14 Q1011=
EGMC 031050Z 22017KT 9999 FEW033 24/14 Q1011=
EGMC 031020Z 24018KT 9999 FEW031 23/13 Q1011=
EGMC 030950Z 22018KT 9999 BKN031 22/14 Q1011=
EGMC 030920Z 23014KT 9999 BKN028 22/13 Q1011=
EGMC 030850Z 23016KT 9999 BKN024 21/14 Q1011=
EGMC 030820Z 23015KT 9999 SCT022 20/15 Q1011=
EGMC 030750Z 24016KT 9999 FEW019 20/15 Q1011=
EGMC 030720Z 24018KT 9999 FEW021 20/15 Q1011=
EGMC 030650Z 24014KT CAVOK 19/13 Q1010=
EGMC 030620Z 23008KT CAVOK 18/12 Q1010=
EGMC 030550Z 22012KT CAVOK 17/11 Q1009=
EGMC 030520Z 22010KT CAVOK 17/11 Q1009=
EGMC 030450Z 20009KT CAVOK 18/11 Q1009=
EGMC 030420Z 20009KT CAVOK 18/11 Q1009=
EGMC 030150Z 14004KT CAVOK 17/13 Q1010=
EGMC 030020Z 12006KT CAVOK 17/13 Q1011=
EGMC 022350Z 07003KT CAVOK 16/13 Q1012=
EGMC 022320Z 07004KT CAVOK 16/13 Q1012=
EGMC 022250Z 05004KT CAVOK 16/12 Q1012=
EGMC 022220Z 06004KT CAVOK 16/12 Q1013=
EGMC 022150Z 08005KT CAVOK 16/12 Q1013=
EGMC 022120Z 09006KT CAVOK 16/12 Q1013=